Time;durP1;ratioP1;P1;durP2;ratioP2;P2;SDS_P1;SDS_P2;PMS_P1;PMS_P2;Temp;Humidity;BMP_temperature;BMP_pressure;BME280_temperature;BME280_humidity;BME280_pressure;Samples;Min_cycle;Max_cycle;Signal;HPM_P1;HPM_P2
2021/10/19 00:01:43;;;;;;;0.40;0.23;;;8.60;99.90;;;;;;5092403;28;20382;-73
2021/10/19 00:04:08;;;;;;;1.40;0.70;;;8.50;99.90;;;;;;5092900;28;20931;-72
2021/10/19 00:06:34;;;;;;;0.40;0.30;;;8.50;99.90;;;;;;5091083;28;20382;-72
2021/10/19 00:09:00;;;;;;;0.40;0.20;;;8.60;99.90;;;;;;5093036;28;20388;-72
2021/10/19 00:11:25;;;;;;;0.40;0.20;;;8.50;99.90;;;;;;5092942;28;20851;-72
2021/10/19 00:13:51;;;;;;;0.40;0.20;;;8.50;99.90;;;;;;5090803;28;20414;-72
2021/10/19 00:16:17;;;;;;;0.40;0.40;;;8.60;99.90;;;;;;5092518;28;20387;-72
2021/10/19 00:18:42;;;;;;;0.40;0.30;;;8.60;99.90;;;;;;5091997;28;20385;-72
2021/10/19 00:21:08;;;;;;;1.20;0.60;;;8.60;99.90;;;;;;5092457;28;20862;-71
2021/10/19 00:23:34;;;;;;;0.40;0.40;;;8.50;99.90;;;;;;5092291;28;20409;-71
2021/10/19 00:25:59;;;;;;;0.40;0.20;;;8.60;99.90;;;;;;5092956;28;20382;-72
2021/10/19 00:28:25;;;;;;;0.40;0.20;;;8.50;99.90;;;;;;5092363;28;20378;-72
2021/10/19 00:30:50;;;;;;;0.40;0.20;;;8.50;99.90;;;;;;5091864;28;20515;-72
2021/10/19 00:33:16;;;;;;;0.40;0.30;;;8.40;99.90;;;;;;5092707;28;20390;-72
2021/10/19 00:35:42;;;;;;;0.40;0.20;;;8.50;99.90;;;;;;5090409;28;20785;-72
2021/10/19 00:38:07;;;;;;;0.40;0.30;;;8.60;99.90;;;;;;5092556;28;20370;-72
2021/10/19 00:40:35;;;;;;;0.40;0.20;;;8.70;99.90;;;;;;5091613;28;20747;-72
2021/10/19 00:43:06;;;;;;;0.40;0.30;;;8.70;99.90;;;;;;5092319;28;20933;-72
2021/10/19 00:45:32;;;;;;;0.40;0.20;;;8.80;99.90;;;;;;5091519;28;20461;-72
2021/10/19 00:47:58;;;;;;;0.40;0.30;;;8.80;99.90;;;;;;5092119;28;20382;-72
2021/10/19 00:50:24;;;;;;;0.40;0.20;;;8.80;99.90;;;;;;5092258;28;20451;-72
2021/10/19 00:52:51;;;;;;;0.40;0.20;;;8.90;99.90;;;;;;5091499;28;20975;-72
2021/10/19 00:55:17;;;;;;;0.40;0.20;;;8.90;99.90;;;;;;5091855;28;20809;-72
2021/10/19 00:57:44;;;;;;;0.40;0.30;;;8.90;99.90;;;;;;5090597;28;20462;-72
2021/10/19 01:00:15;;;;;;;0.40;0.20;;;8.90;99.90;;;;;;5091742;28;20489;-72
2021/10/19 01:02:43;;;;;;;0.40;0.30;;;9.00;99.90;;;;;;5090891;28;20398;-72
2021/10/19 01:05:10;;;;;;;0.40;0.40;;;9.00;99.90;;;;;;5092128;28;20457;-72
2021/10/19 01:07:36;;;;;;;0.40;0.30;;;9.00;99.90;;;;;;5091069;28;20442;-72
2021/10/19 01:10:05;;;;;;;0.40;0.30;;;8.90;99.90;;;;;;5090430;28;20434;-72
2021/10/19 01:12:31;;;;;;;0.75;0.75;;;8.90;99.90;;;;;;5091878;28;20718;-72
2021/10/19 01:14:56;;;;;;;0.40;0.20;;;9.00;99.90;;;;;;5091100;28;20925;-72
2021/10/19 01:17:22;;;;;;;0.40;0.20;;;9.00;99.90;;;;;;5091603;28;20465;-71
2021/10/19 01:19:52;;;;;;;0.40;0.30;;;9.00;99.90;;;;;;5090449;28;20448;-72
2021/10/19 01:22:17;;;;;;;0.40;0.20;;;9.00;99.90;;;;;;5091569;28;20461;-72
2021/10/19 01:24:46;;;;;;;0.40;0.40;;;9.00;99.90;;;;;;5090898;28;20457;-72
2021/10/19 01:27:12;;;;;;;0.40;0.30;;;9.00;99.90;;;;;;5091321;28;20404;-72
2021/10/19 01:29:38;;;;;;;0.40;0.20;;;9.00;99.90;;;;;;5089586;28;20394;-72
2021/10/19 01:32:05;;;;;;;0.40;0.30;;;9.00;99.90;;;;;;5091468;28;20397;-72
2021/10/19 01:34:35;;;;;;;0.70;0.60;;;8.90;99.90;;;;;;5091666;28;20733;-72
2021/10/19 01:37:02;;;;;;;0.40;0.20;;;8.80;99.90;;;;;;5091098;28;20370;-72
2021/10/19 01:39:28;;;;;;;0.40;0.20;;;8.80;99.90;;;;;;5091348;28;20796;-72
2021/10/19 01:41:53;;;;;;;0.40;0.20;;;8.80;99.90;;;;;;5089206;28;20382;-72
2021/10/19 01:44:20;;;;;;;0.40;0.30;;;8.70;99.90;;;;;;5091107;28;20377;-72
2021/10/19 01:46:45;;;;;;;0.40;0.20;;;8.80;99.90;;;;;;5090315;28;20397;-72
2021/10/19 01:49:11;;;;;;;0.40;0.30;;;8.80;99.90;;;;;;5091448;28;20386;-72
2021/10/19 01:51:37;;;;;;;0.40;0.30;;;8.80;99.90;;;;;;5090148;28;20863;-72
2021/10/19 01:54:02;;;;;;;0.40;0.30;;;8.90;99.90;;;;;;5090011;28;20439;-72
2021/10/19 01:56:28;;;;;;;0.40;0.20;;;9.00;99.90;;;;;;5091237;28;20455;-72
2021/10/19 01:58:54;;;;;;;0.40;0.20;;;9.10;99.90;;;;;;5090332;28;20411;-72
2021/10/19 02:01:20;;;;;;;0.43;0.37;;;9.10;99.90;;;;;;5089889;28;20447;-72
2021/10/19 02:03:46;;;;;;;0.40;0.20;;;9.00;99.90;;;;;;5090447;28;20529;-72
2021/10/19 02:06:11;;;;;;;0.40;0.20;;;9.00;99.90;;;;;;5091093;28;20382;-72
2021/10/19 02:08:37;;;;;;;0.40;0.20;;;9.10;99.90;;;;;;5090084;28;20384;-72
2021/10/19 02:11:03;;;;;;;0.40;0.30;;;9.20;99.90;;;;;;5090855;28;20370;-72
2021/10/19 02:13:29;;;;;;;0.40;0.20;;;9.10;99.90;;;;;;5090926;28;20873;-72
2021/10/19 02:15:55;;;;;;;0.40;0.30;;;9.10;99.90;;;;;;5090010;28;20525;-72
2021/10/19 02:18:20;;;;;;;0.40;0.20;;;9.00;99.90;;;;;;5090593;28;20374;-72
2021/10/19 02:20:46;;;;;;;0.40;0.20;;;9.00;99.90;;;;;;5089866;28;20453;-72
2021/10/19 02:23:12;;;;;;;0.40;0.40;;;9.10;99.90;;;;;;5090801;28;20427;-72
2021/10/19 02:25:38;;;;;;;0.40;0.20;;;9.20;99.90;;;;;;5090263;28;20392;-73
2021/10/19 02:28:04;;;;;;;0.40;0.30;;;9.30;99.90;;;;;;5090886;28;20469;-71
2021/10/19 02:30:30;;;;;;;0.40;0.30;;;9.20;99.90;;;;;;5094557;28;20927;-72
2021/10/19 02:32:56;;;;;;;0.40;0.20;;;9.20;99.90;;;;;;5094497;28;20394;-72
2021/10/19 02:35:22;;;;;;;0.40;0.30;;;9.10;99.90;;;;;;5095088;28;20750;-72
2021/10/19 02:37:49;;;;;;;0.40;0.30;;;9.30;99.90;;;;;;5093944;28;20385;-72
2021/10/19 02:40:16;;;;;;;0.40;0.20;;;9.10;99.90;;;;;;5094518;28;20778;-72
2021/10/19 02:42:42;;;;;;;0.40;0.20;;;9.10;99.90;;;;;;5092487;28;20385;-72
2021/10/19 02:45:10;;;;;;;0.40;0.30;;;9.20;99.90;;;;;;5094454;28;20464;-72
2021/10/19 02:47:36;;;;;;;0.40;0.30;;;9.20;99.90;;;;;;5094398;28;20424;-72
2021/10/19 02:50:02;;;;;;;0.40;0.30;;;9.10;99.90;;;;;;5094135;28;20396;-72
2021/10/19 02:52:28;;;;;;;0.40;0.20;;;9.00;99.90;;;;;;5092964;28;20500;-72
2021/10/19 02:54:53;;;;;;;0.70;0.50;;;9.10;99.90;;;;;;5093909;28;20853;-72
2021/10/19 02:57:20;;;;;;;0.40;0.20;;;9.00;99.90;;;;;;5094733;28;20866;-72
2021/10/19 02:59:46;;;;;;;0.40;0.20;;;9.00;99.90;;;;;;5093946;28;20478;-72
2021/10/19 03:02:12;;;;;;;0.40;0.20;;;9.10;99.90;;;;;;5094127;28;20397;-72
2021/10/19 03:04:38;;;;;;;0.40;0.20;;;9.10;99.90;;;;;;5094146;28;20378;-72
2021/10/19 03:07:03;;;;;;;0.40;0.20;;;9.10;99.90;;;;;;5093613;28;20370;-72
2021/10/19 03:09:29;;;;;;;0.40;0.20;;;9.20;99.90;;;;;;5094370;28;20877;-72
2021/10/19 03:11:55;;;;;;;0.40;0.40;;;9.10;99.90;;;;;;5088769;28;20740;-72
2021/10/19 03:14:21;;;;;;;0.40;0.30;;;9.30;99.90;;;;;;5094616;28;20366;-72
2021/10/19 03:16:46;;;;;;;1.70;0.90;;;9.40;99.90;;;;;;5093260;28;20385;-72
2021/10/19 03:19:12;;;;;;;0.40;0.30;;;9.30;99.90;;;;;;5093774;28;20493;-72
2021/10/19 03:21:38;;;;;;;0.40;0.30;;;9.20;99.90;;;;;;5092736;28;20731;-72
2021/10/19 03:24:04;;;;;;;0.40;0.20;;;9.30;99.90;;;;;;5093477;28;20378;-72
2021/10/19 03:26:31;;;;;;;0.40;0.20;;;9.40;99.90;;;;;;5093520;28;20445;-72
2021/10/19 03:28:56;;;;;;;0.50;0.40;;;9.20;99.90;;;;;;5092496;28;20386;-72
2021/10/19 03:31:22;;;;;;;0.40;0.30;;;9.30;99.90;;;;;;5093746;28;20376;-72
2021/10/19 03:33:48;;;;;;;0.40;0.30;;;9.30;99.90;;;;;;5092864;28;20859;-72
2021/10/19 03:36:14;;;;;;;0.40;0.20;;;9.30;99.90;;;;;;5093493;28;20720;-72
2021/10/19 03:38:40;;;;;;;1.90;0.60;;;9.20;99.90;;;;;;5092772;28;20750;-72
2021/10/19 03:41:06;;;;;;;0.40;0.30;;;9.10;99.90;;;;;;5091805;28;20519;-72
2021/10/19 03:43:32;;;;;;;0.40;0.20;;;9.20;99.90;;;;;;5092024;28;20370;-72
2021/10/19 03:45:58;;;;;;;0.40;0.20;;;9.20;99.90;;;;;;5092154;28;20730;-72
2021/10/19 03:48:24;;;;;;;0.40;0.20;;;9.20;99.90;;;;;;5093486;28;20520;-72
2021/10/19 03:50:49;;;;;;;0.40;0.20;;;9.20;99.90;;;;;;5092636;28;20404;-72
2021/10/19 03:53:15;;;;;;;0.40;0.20;;;9.20;99.90;;;;;;5093052;28;20406;-72
2021/10/19 03:55:43;;;;;;;0.40;0.30;;;9.30;99.90;;;;;;5092994;28;20484;-72
2021/10/19 03:58:10;;;;;;;0.40;0.30;;;9.30;99.90;;;;;;5093253;28;20382;-72
2021/10/19 04:00:36;;;;;;;0.40;0.20;;;9.20;99.90;;;;;;5093172;28;20398;-72
2021/10/19 04:03:01;;;;;;;0.40;0.30;;;9.30;99.90;;;;;;5092486;28;20385;-72
2021/10/19 04:05:28;;;;;;;0.40;0.20;;;9.50;99.90;;;;;;5093121;28;20381;-72
2021/10/19 04:07:53;;;;;;;0.40;0.30;;;9.40;99.90;;;;;;5092371;28;20392;-72
2021/10/19 04:10:21;;;;;;;0.50;0.40;;;9.40;99.90;;;;;;5093097;28;20925;-72
2021/10/19 04:12:47;;;;;;;0.40;0.20;;;9.40;99.90;;;;;;5092321;28;20424;-72
2021/10/19 04:15:13;;;;;;;0.60;0.60;;;9.50;99.90;;;;;;5093072;28;20743;-72
2021/10/19 04:17:38;;;;;;;0.40;0.20;;;9.60;99.90;;;;;;5092937;28;20431;-72
2021/10/19 04:20:05;;;;;;;3.10;0.60;;;9.60;99.90;;;;;;5092173;28;20397;-72
2021/10/19 04:22:31;;;;;;;0.40;0.20;;;9.50;99.90;;;;;;5092905;28;20808;-72
2021/10/19 04:24:58;;;;;;;0.70;0.60;;;9.60;99.90;;;;;;5092478;28;20476;-72
2021/10/19 04:27:23;;;;;;;0.40;0.20;;;9.70;99.90;;;;;;5092785;28;20408;-72
2021/10/19 04:29:49;;;;;;;0.40;0.20;;;9.70;99.90;;;;;;5092019;28;20838;-72
2021/10/19 04:32:15;;;;;;;0.40;0.30;;;9.70;99.90;;;;;;5092723;28;20393;-72
2021/10/19 04:34:40;;;;;;;0.60;0.60;;;9.80;99.90;;;;;;5091445;28;20390;-72
2021/10/19 04:37:06;;;;;;;0.40;0.20;;;9.80;99.90;;;;;;5091297;28;20870;-72
2021/10/19 04:39:32;;;;;;;0.40;0.20;;;9.80;99.90;;;;;;5094756;28;20410;-72
2021/10/19 04:41:58;;;;;;;0.40;0.20;;;9.90;99.90;;;;;;5090569;28;20439;-72
2021/10/19 04:44:24;;;;;;;0.40;0.40;;;9.90;99.90;;;;;;5092772;28;20436;-72
2021/10/19 04:46:49;;;;;;;0.40;0.30;;;9.90;99.90;;;;;;5091041;28;20378;-72
2021/10/19 04:49:15;;;;;;;0.40;0.30;;;9.90;99.90;;;;;;5098756;28;20381;-71
2021/10/19 04:51:41;;;;;;;0.40;0.30;;;9.90;99.90;;;;;;5093276;28;20406;-71
2021/10/19 04:54:07;;;;;;;0.40;0.30;;;9.80;99.90;;;;;;5098217;28;20592;-71
2021/10/19 04:56:33;;;;;;;1.03;0.40;;;9.90;99.90;;;;;;5092905;28;20382;-71
2021/10/19 04:58:59;;;;;;;0.40;0.20;;;9.80;99.90;;;;;;5107268;28;20876;-71
2021/10/19 05:01:25;;;;;;;0.40;0.20;;;9.90;99.90;;;;;;5095545;28;20378;-71
2021/10/19 05:03:52;;;;;;;0.47;0.47;;;9.80;99.90;;;;;;5090333;28;20379;-71
2021/10/19 05:06:18;;;;;;;0.40;0.30;;;9.80;99.90;;;;;;5095568;28;20472;-71
2021/10/19 05:08:44;;;;;;;0.60;0.60;;;9.80;99.90;;;;;;5103478;28;20473;-71
2021/10/19 05:11:10;;;;;;;0.40;0.20;;;9.90;99.90;;;;;;5095402;28;20396;-71
2021/10/19 05:13:35;;;;;;;0.40;0.30;;;9.90;99.90;;;;;;5112114;27;20369;-71
2021/10/19 05:16:01;;;;;;;0.40;0.20;;;9.90;99.90;;;;;;5101719;28;20871;-72
2021/10/19 05:18:27;;;;;;;0.50;0.50;;;9.80;99.90;;;;;;5107056;28;20857;-71
2021/10/19 05:20:52;;;;;;;0.40;0.20;;;9.90;99.90;;;;;;5096002;28;20402;-71
2021/10/19 05:23:18;;;;;;;0.40;0.30;;;10.00;99.90;;;;;;5098701;28;20460;-71
2021/10/19 05:25:44;;;;;;;0.40;0.30;;;10.00;99.90;;;;;;5101361;28;20409;-72
2021/10/19 05:28:09;;;;;;;0.40;0.20;;;10.00;99.90;;;;;;5096739;28;20445;-71
2021/10/19 05:30:35;;;;;;;0.80;0.80;;;10.30;99.90;;;;;;5093040;28;20378;-71
2021/10/19 05:33:03;;;;;;;0.40;0.25;;;10.40;99.90;;;;;;5105916;28;20846;-74
2021/10/19 05:35:32;;;;;;;0.40;0.20;;;10.50;99.90;;;;;;5094594;28;20418;-74
2021/10/19 05:37:58;;;;;;;0.40;0.30;;;10.40;99.90;;;;;;5102943;28;20460;-74
2021/10/19 05:40:24;;;;;;;0.40;0.30;;;10.50;99.90;;;;;;5094549;28;20414;-75
2021/10/19 05:42:50;;;;;;;0.40;0.20;;;10.40;99.90;;;;;;5071221;28;20374;-75
2021/10/19 05:45:17;;;;;;;0.40;0.20;;;10.40;99.90;;;;;;5089142;28;20393;-75
2021/10/19 05:47:45;;;;;;;0.80;0.50;;;10.40;99.90;;;;;;5088413;28;20406;-76
2021/10/19 05:50:14;;;;;;;0.40;0.30;;;10.50;99.90;;;;;;5090106;28;20469;-75
2021/10/19 05:52:40;;;;;;;1.30;0.50;;;10.60;99.90;;;;;;5088120;28;20803;-76
2021/10/19 05:55:06;;;;;;;0.40;0.30;;;10.50;99.90;;;;;;5086997;28;20390;-75
2021/10/19 05:57:32;;;;;;;0.40;0.30;;;10.60;99.90;;;;;;5090319;28;20531;-76
2021/10/19 05:59:58;;;;;;;0.40;0.30;;;10.60;99.90;;;;;;5087382;28;20497;-76
2021/10/19 06:02:23;;;;;;;0.40;0.20;;;10.70;99.90;;;;;;5089784;28;20415;-76
2021/10/19 06:04:49;;;;;;;0.40;0.30;;;10.80;99.90;;;;;;5086636;28;20447;-75
2021/10/19 06:07:14;;;;;;;0.40;0.30;;;11.00;99.90;;;;;;5089192;28;20420;-75
2021/10/19 06:09:40;;;;;;;0.40;0.30;;;10.90;99.90;;;;;;5091825;28;20382;-75
2021/10/19 06:12:06;;;;;;;2.80;1.10;;;11.00;99.90;;;;;;5085773;28;20980;-75
2021/10/19 06:14:32;;;;;;;0.40;0.20;;;10.90;99.90;;;;;;5082170;28;20427;-76
2021/10/19 06:16:58;;;;;;;1.10;0.60;;;10.90;99.90;;;;;;5085942;28;20377;-76
2021/10/19 06:19:24;;;;;;;0.40;0.20;;;10.90;99.90;;;;;;5087500;28;21024;-76
2021/10/19 06:21:49;;;;;;;0.40;0.30;;;10.90;99.90;;;;;;5087023;28;20447;-76
2021/10/19 06:24:17;;;;;;;0.40;0.30;;;11.10;99.90;;;;;;5076404;28;20397;-75
2021/10/19 06:26:43;;;;;;;1.15;0.52;;;11.00;99.90;;;;;;5084900;28;20387;-75
2021/10/19 06:29:11;;;;;;;0.40;0.20;;;11.10;99.90;;;;;;5082675;28;20698;-75
2021/10/19 06:31:37;;;;;;;0.40;0.30;;;11.00;99.90;;;;;;5086371;28;20723;-77
2021/10/19 06:34:04;;;;;;;0.40;0.20;;;11.00;99.90;;;;;;5082846;28;20401;-76
2021/10/19 06:36:30;;;;;;;0.40;0.30;;;11.10;99.90;;;;;;5088151;28;20417;-76
2021/10/19 06:38:55;;;;;;;0.40;0.30;;;11.20;99.90;;;;;;5086122;28;20485;-75
2021/10/19 06:41:21;;;;;;;0.40;0.30;;;11.20;99.90;;;;;;5087786;28;20449;-75
2021/10/19 06:43:47;;;;;;;0.40;0.20;;;11.20;99.90;;;;;;5086199;28;20481;-77
2021/10/19 06:46:13;;;;;;;0.60;0.60;;;11.20;99.90;;;;;;5086828;28;20576;-76
2021/10/19 06:48:39;;;;;;;0.40;0.20;;;11.20;99.90;;;;;;5087799;28;20730;-76
2021/10/19 06:51:05;;;;;;;0.40;0.30;;;11.20;99.90;;;;;;5086571;28;20392;-75
2021/10/19 06:53:32;;;;;;;0.40;0.30;;;11.30;99.90;;;;;;5087988;28;20381;-75
2021/10/19 06:55:58;;;;;;;0.40;0.30;;;11.30;99.90;;;;;;5086820;28;20465;-75
2021/10/19 06:58:25;;;;;;;0.40;0.20;;;11.20;99.90;;;;;;5087899;28;20867;-76
2021/10/19 07:00:51;;;;;;;0.60;0.60;;;11.30;99.90;;;;;;5087429;28;20750;-75
2021/10/19 07:03:17;;;;;;;0.40;0.20;;;11.40;99.90;;;;;;5086939;28;20385;-76
2021/10/19 07:05:43;;;;;;;0.40;0.30;;;11.40;99.90;;;;;;5087598;28;20386;-76
2021/10/19 07:08:08;;;;;;;0.40;0.30;;;11.50;99.90;;;;;;5085633;28;20631;-76
2021/10/19 07:10:34;;;;;;;0.40;0.20;;;11.50;99.90;;;;;;5087359;28;20398;-76
2021/10/19 07:12:59;;;;;;;0.40;0.20;;;11.50;99.90;;;;;;5078462;28;20874;-75
2021/10/19 07:15:26;;;;;;;0.40;0.20;;;11.50;99.90;;;;;;5088231;28;20382;-76
2021/10/19 07:17:51;;;;;;;0.40;0.22;;;11.60;99.90;;;;;;5093483;28;20378;-76
2021/10/19 07:20:17;;;;;;;0.40;0.30;;;11.60;99.90;;;;;;5092967;28;20804;-76
2021/10/19 07:22:44;;;;;;;0.40;0.20;;;11.50;99.90;;;;;;5092723;28;20427;-75
2021/10/19 07:25:10;;;;;;;0.40;0.20;;;11.60;99.90;;;;;;5093297;28;20378;-76
2021/10/19 07:27:37;;;;;;;0.40;0.30;;;11.60;99.90;;;;;;5092726;28;20386;-76
2021/10/19 07:30:03;;;;;;;0.40;0.30;;;11.50;99.90;;;;;;5093191;28;20385;-75
2021/10/19 07:32:29;;;;;;;0.40;0.20;;;11.60;99.90;;;;;;5094149;28;20386;-76
2021/10/19 07:34:54;;;;;;;0.40;0.20;;;11.60;99.90;;;;;;5092534;28;20391;-76
2021/10/19 07:37:22;;;;;;;0.40;0.20;;;11.60;99.90;;;;;;5093664;28;20428;-76
2021/10/19 07:39:47;;;;;;;0.40;0.20;;;11.70;99.90;;;;;;5093810;28;20414;-75
2021/10/19 07:42:13;;;;;;;0.40;0.20;;;11.80;99.90;;;;;;5093316;28;20381;-76
2021/10/19 07:44:39;;;;;;;0.40;0.20;;;11.90;99.90;;;;;;5094210;28;20735;-76
2021/10/19 07:47:05;;;;;;;0.40;0.30;;;11.90;99.90;;;;;;5093609;28;20385;-76
2021/10/19 07:49:30;;;;;;;0.40;0.20;;;12.10;99.90;;;;;;5093750;28;20738;-76
2021/10/19 07:51:56;;;;;;;0.40;0.20;;;12.10;99.90;;;;;;5093160;28;20398;-76
2021/10/19 07:54:22;;;;;;;0.40;0.20;;;12.20;99.90;;;;;;5093593;28;20377;-75
2021/10/19 07:56:47;;;;;;;0.40;0.30;;;12.10;99.90;;;;;;5093597;28;20385;-75
2021/10/19 07:59:13;;;;;;;0.40;0.20;;;12.00;99.90;;;;;;5092550;28;20650;-75
2021/10/19 08:01:41;;;;;;;0.40;0.30;;;12.00;99.90;;;;;;5093420;28;20386;-76
2021/10/19 08:04:07;;;;;;;0.40;0.20;;;12.00;99.90;;;;;;5092542;28;20771;-76
2021/10/19 08:06:34;;;;;;;0.70;0.50;;;12.00;99.90;;;;;;5093221;28;20473;-75
2021/10/19 08:09:02;;;;;;;0.70;0.70;;;11.90;99.90;;;;;;5092378;28;20469;-75
2021/10/19 08:11:28;;;;;;;0.40;0.30;;;12.00;99.90;;;;;;5093243;28;20557;-75
2021/10/19 08:13:56;;;;;;;0.43;0.43;;;12.10;99.90;;;;;;5092376;28;20458;-75
2021/10/19 08:16:22;;;;;;;0.40;0.20;;;12.10;99.90;;;;;;5092933;28;20846;-75
2021/10/19 08:18:52;;;;;;;0.40;0.20;;;12.20;99.90;;;;;;5091780;28;20984;-76
2021/10/19 08:21:18;;;;;;;0.40;0.20;;;12.20;99.90;;;;;;5091892;28;20386;-75
2021/10/19 08:23:43;;;;;;;0.40;0.20;;;12.30;99.90;;;;;;5093012;28;20374;-75
2021/10/19 08:26:09;;;;;;;0.40;0.20;;;12.40;99.90;;;;;;5091716;28;20855;-75
2021/10/19 08:28:39;;;;;;;0.40;0.40;;;12.60;99.90;;;;;;5092728;28;20397;-75
2021/10/19 08:31:07;;;;;;;0.40;0.20;;;12.60;99.90;;;;;;5092268;28;20418;-75
2021/10/19 08:33:33;;;;;;;0.70;0.50;;;12.70;99.90;;;;;;5074805;28;20398;-75
2021/10/19 08:35:59;;;;;;;0.40;0.30;;;12.70;99.90;;;;;;5090089;28;20386;-75
2021/10/19 08:38:24;;;;;;;0.40;0.20;;;12.80;99.90;;;;;;5092535;28;20704;-76
2021/10/19 08:40:50;;;;;;;0.40;0.20;;;12.80;99.90;;;;;;5092363;28;20742;-75
2021/10/19 08:43:20;;;;;;;0.40;0.30;;;12.90;99.90;;;;;;5091657;28;21095;-75
2021/10/19 08:45:46;;;;;;;0.40;0.20;;;13.00;99.90;;;;;;5091045;28;20458;-75
2021/10/19 08:48:12;;;;;;;0.40;0.30;;;13.00;99.90;;;;;;5091673;28;20374;-75
2021/10/19 08:50:38;;;;;;;0.40;0.30;;;13.00;99.90;;;;;;5092091;28;20808;-75
2021/10/19 08:53:03;;;;;;;0.40;0.20;;;12.90;99.90;;;;;;5091902;28;20745;-75
2021/10/19 08:55:29;;;;;;;0.40;0.20;;;13.00;99.90;;;;;;5092245;28;20719;-75
2021/10/19 08:58:01;;;;;;;0.40;0.30;;;13.00;99.90;;;;;;5092083;28;20423;-75
2021/10/19 09:00:27;;;;;;;0.40;0.20;;;13.20;99.90;;;;;;5092007;28;20402;-75
2021/10/19 09:02:53;;;;;;;0.40;0.20;;;13.20;99.90;;;;;;5091978;28;20397;-75
2021/10/19 09:05:24;;;;;;;0.40;0.30;;;13.00;99.90;;;;;;5091318;28;20374;-75
2021/10/19 09:08:06;;;;;;;0.70;0.40;;;13.10;99.90;;;;;;5091898;28;20456;-75
2021/10/19 09:10:38;;;;;;;0.40;0.30;;;13.10;99.90;;;;;;5092074;28;20386;-75
2021/10/19 09:13:06;;;;;;;0.40;0.30;;;13.20;99.90;;;;;;5091003;28;20532;-75
2021/10/19 09:15:39;;;;;;;0.40;0.30;;;13.30;99.90;;;;;;5090705;28;20378;-75
2021/10/19 09:18:11;;;;;;;0.40;0.20;;;13.30;99.90;;;;;;5091150;28;20386;-75
2021/10/19 09:20:39;;;;;;;0.40;0.40;;;13.40;99.90;;;;;;5091575;28;20414;-75
2021/10/19 09:23:05;;;;;;;0.40;0.20;;;13.40;99.90;;;;;;5089759;28;20389;-75
2021/10/19 09:25:38;;;;;;;0.40;0.20;;;13.50;99.90;;;;;;5091797;28;20798;-75
2021/10/19 09:28:06;;;;;;;0.50;0.50;;;13.60;99.90;;;;;;5090751;28;20380;-75
2021/10/19 09:30:32;;;;;;;0.40;0.30;;;13.70;99.90;;;;;;5091759;28;20761;-75
2021/10/19 09:32:58;;;;;;;0.40;0.40;;;13.80;99.90;;;;;;5091534;28;20394;-75
2021/10/19 09:35:23;;;;;;;0.40;0.20;;;13.80;99.90;;;;;;5090005;28;20382;-75
2021/10/19 09:38:01;;;;;;;0.40;0.20;;;13.80;99.90;;;;;;5091755;28;20378;-75
2021/10/19 09:40:35;;;;;;;0.40;0.40;;;13.80;99.90;;;;;;5091724;28;20409;-75
2021/10/19 09:43:06;;;;;;;0.40;0.30;;;13.70;99.90;;;;;;5091075;28;20370;-76
2021/10/19 09:45:33;;;;;;;0.40;0.40;;;13.70;99.90;;;;;;5090000;28;20432;-75
2021/10/19 09:47:58;;;;;;;0.50;0.50;;;13.90;99.90;;;;;;5091308;28;20378;-75
2021/10/19 09:50:25;;;;;;;0.40;0.30;;;14.10;99.90;;;;;;5090768;28;20378;-76
2021/10/19 09:52:51;;;;;;;0.40;0.40;;;14.10;99.90;;;;;;5091249;28;20893;-75
2021/10/19 09:55:17;;;;;;;0.40;0.30;;;14.20;99.90;;;;;;5090476;28;20366;-75
2021/10/19 09:57:43;;;;;;;0.40;0.20;;;14.10;99.90;;;;;;5091121;28;20399;-75
2021/10/19 10:00:11;;;;;;;0.70;0.60;;;14.20;99.90;;;;;;5090304;28;20408;-76
2021/10/19 10:02:38;;;;;;;0.70;0.70;;;14.20;99.90;;;;;;5091043;28;20394;-76
2021/10/19 10:05:05;;;;;;;0.40;0.30;;;14.30;99.90;;;;;;5090430;28;20708;-75
2021/10/19 10:07:31;;;;;;;0.40;0.20;;;14.30;99.90;;;;;;5089918;28;20389;-75
2021/10/19 10:10:01;;;;;;;0.40;0.20;;;14.30;99.90;;;;;;5089181;28;20386;-76
2021/10/19 10:12:31;;;;;;;0.40;0.30;;;14.30;99.90;;;;;;5090538;28;20379;-76
2021/10/19 10:14:58;;;;;;;0.80;0.80;;;14.40;99.90;;;;;;5090750;28;20386;-76
2021/10/19 10:17:23;;;;;;;0.40;0.20;;;14.40;99.90;;;;;;5071982;28;20566;-76
2021/10/19 10:19:50;;;;;;;0.45;0.28;;;14.50;99.90;;;;;;5090813;28;20402;-75
2021/10/19 10:22:18;;;;;;;0.40;0.20;;;14.50;99.90;;;;;;5090080;28;20378;-75
2021/10/19 10:24:46;;;;;;;0.40;0.30;;;14.60;99.90;;;;;;5091109;28;20435;-75
2021/10/19 10:27:23;;;;;;;0.93;0.85;;;14.70;99.90;;;;;;5089962;28;20378;-75
2021/10/19 10:29:49;;;;;;;0.40;0.20;;;14.60;99.90;;;;;;5090974;28;20461;-75
2021/10/19 10:32:29;;;;;;;0.40;0.40;;;14.90;99.90;;;;;;5089503;28;20469;-75
2021/10/19 10:35:16;;;;;;;0.70;0.70;;;14.90;99.90;;;;;;5089535;28;20735;-75
2021/10/19 10:37:50;;;;;;;0.40;0.30;;;15.00;99.90;;;;;;5091015;28;20431;-75
2021/10/19 10:40:26;;;;;;;0.40;0.20;;;15.10;99.90;;;;;;5088756;28;20484;-75
2021/10/19 10:42:52;;;;;;;0.40;0.30;;;15.00;99.90;;;;;;5089421;28;20374;-75
2021/10/19 10:45:45;;;;;;;0.40;0.30;;;15.10;99.90;;;;;;5089781;28;20382;-75
2021/10/19 10:48:11;;;;;;;0.50;0.50;;;15.20;99.90;;;;;;5086413;28;20390;-75
2021/10/19 10:50:38;;;;;;;0.40;0.20;;;15.40;99.90;;;;;;5092331;28;21021;-75
2021/10/19 10:53:08;;;;;;;0.40;0.30;;;15.40;99.90;;;;;;5093663;28;20402;-75
2021/10/19 10:55:48;;;;;;;0.40;0.30;;;15.50;99.90;;;;;;5094466;28;20377;-75
2021/10/19 10:58:24;;;;;;;0.40;0.30;;;15.60;99.90;;;;;;5093749;28;20421;-75
2021/10/19 11:00:51;;;;;;;0.40;0.20;;;15.50;99.90;;;;;;5094488;28;20416;-75
2021/10/19 11:03:18;;;;;;;0.40;0.30;;;15.60;99.90;;;;;;5093728;28;20386;-75
2021/10/19 11:06:02;;;;;;;1.10;0.70;;;15.50;99.90;;;;;;5094364;28;20451;-75
2021/10/19 11:08:33;;;;;;;0.40;0.20;;;15.50;99.90;;;;;;5093649;28;20378;-75
2021/10/19 11:11:15;;;;;;;0.40;0.40;;;15.50;99.90;;;;;;5094340;28;20447;-75
2021/10/19 11:14:03;;;;;;;0.40;0.38;;;15.40;99.90;;;;;;5094215;28;20453;-75
2021/10/19 11:16:41;;;;;;;0.40;0.30;;;15.40;99.90;;;;;;5093266;28;20461;-75
2021/10/19 11:19:24;;;;;;;0.40;0.20;;;15.30;99.90;;;;;;5093632;28;20783;-75
2021/10/19 11:22:03;;;;;;;0.40;0.20;;;15.40;99.90;;;;;;5094323;28;20864;-75
2021/10/19 11:24:32;;;;;;;0.40;0.20;;;15.30;99.90;;;;;;5093333;28;20378;-75
2021/10/19 11:27:00;;;;;;;0.50;0.40;;;15.40;99.90;;;;;;5093894;28;20367;-75
2021/10/19 11:29:26;;;;;;;0.40;0.40;;;15.40;99.90;;;;;;5093162;28;20386;-75
2021/10/19 11:31:52;;;;;;;0.40;0.22;;;15.40;99.90;;;;;;5093905;28;20378;-75
2021/10/19 11:34:19;;;;;;;0.40;0.30;;;15.40;99.90;;;;;;5091821;28;20498;-75
2021/10/19 11:36:44;;;;;;;0.40;0.30;;;15.50;99.90;;;;;;5093818;28;20409;-75
2021/10/19 11:39:12;;;;;;;0.40;0.20;;;15.60;99.90;;;;;;5092595;28;20457;-75
2021/10/19 11:41:42;;;;;;;0.40;0.30;;;15.70;99.90;;;;;;5093729;28;20421;-75
2021/10/19 11:44:09;;;;;;;0.40;0.20;;;15.70;99.90;;;;;;5091994;28;20384;-75
2021/10/19 11:46:35;;;;;;;0.40;0.20;;;15.70;99.90;;;;;;5093474;28;20382;-75
2021/10/19 11:49:17;;;;;;;0.40;0.27;;;15.80;99.90;;;;;;5093827;28;20393;-75
2021/10/19 11:51:53;;;;;;;0.40;0.20;;;15.90;99.90;;;;;;5093584;28;20746;-75
2021/10/19 11:54:20;;;;;;;0.40;0.30;;;16.00;99.90;;;;;;5092478;28;20490;-75
2021/10/19 11:57:00;;;;;;;0.40;0.20;;;16.10;99.90;;;;;;5093611;28;20554;-75
2021/10/19 11:59:26;;;;;;;0.40;0.30;;;16.20;99.90;;;;;;5092325;28;20463;-76
2021/10/19 12:01:54;;;;;;;0.60;0.40;;;16.10;99.90;;;;;;5091894;28;20401;-76
2021/10/19 12:04:30;;;;;;;0.40;0.20;;;16.20;99.90;;;;;;5092411;28;20461;-75
2021/10/19 12:06:56;;;;;;;0.50;0.40;;;16.20;99.90;;;;;;5093394;28;20432;-76
2021/10/19 12:09:26;;;;;;;0.60;0.60;;;16.30;99.90;;;;;;5092269;28;20378;-76
2021/10/19 12:11:54;;;;;;;0.40;0.20;;;16.10;99.90;;;;;;5092094;28;20386;-76
2021/10/19 12:14:34;;;;;;;0.40;0.20;;;16.10;99.90;;;;;;5092261;28;20378;-76
2021/10/19 12:17:03;;;;;;;0.40;0.20;;;16.20;99.90;;;;;;5093047;28;20490;-76
2021/10/19 12:19:30;;;;;;;0.40;0.40;;;16.00;99.90;;;;;;5091883;28;20459;-76
2021/10/19 12:21:59;;;;;;;0.40;0.30;;;16.00;99.90;;;;;;5091957;28;20374;-76
2021/10/19 12:24:25;;;;;;;0.40;0.30;;;16.00;99.90;;;;;;5092189;28;20477;-76
2021/10/19 12:27:04;;;;;;;0.40;0.30;;;16.00;99.90;;;;;;5092892;28;20404;-76
2021/10/19 12:29:31;;;;;;;0.40;0.20;;;16.00;99.90;;;;;;5092014;28;20524;-76
2021/10/19 12:31:57;;;;;;;0.40;0.20;;;16.00;99.90;;;;;;5093013;28;20382;-76
2021/10/19 12:34:27;;;;;;;0.40;0.30;;;16.00;99.90;;;;;;5091986;28;20374;-75
2021/10/19 12:36:53;;;;;;;0.40;0.20;;;16.10;99.90;;;;;;5092974;28;20428;-75
2021/10/19 12:39:19;;;;;;;0.40;0.30;;;16.20;99.90;;;;;;5091598;28;20893;-75
2021/10/19 12:41:46;;;;;;;1.20;0.70;;;16.20;99.90;;;;;;5092481;28;20391;-75
2021/10/19 12:44:16;;;;;;;0.50;0.50;;;16.20;99.90;;;;;;5091837;28;20414;-75
2021/10/19 12:46:42;;;;;;;0.40;0.30;;;16.20;99.90;;;;;;5092308;28;20870;-75
2021/10/19 12:49:08;;;;;;;0.40;0.30;;;16.30;99.90;;;;;;5092989;28;20378;-75
2021/10/19 12:51:36;;;;;;;0.40;0.30;;;16.20;99.90;;;;;;5091390;28;20421;-75